Alma, Arkansas
Current Conditions -  °F | °C
As of 1:53 AM on Thursday 29 Jan 2015 (Local Time) from KFSM Reporting Station
Clear Clear  
Wind Chill: 45°   Ceiling: Unl
Heat Index: 45°   Visibility: 10mi
Dew Point: 41°   Wind: 0mph
Humidity: 86%   Direction: NA
Pressure: 29.97"   Gusts: NA
Location:  35.48°N, 94.22°W
Report Text: KFSM 290753Z AUTO 00000KT 10SM CLR 07/05 A2997 RMK AO2 SLP149 T00720050
Loading
Personal Weather Stations






























Interactive Weather Map New forecast layout! Learn more

10-Day Weather Forecast

Advertisements
Track Severe Weather on mobile